Time;durP1;ratioP1;P1;durP2;ratioP2;P2;SDS_P1;SDS_P2;PMS_P1;PMS_P2;Temp;Humidity;BMP_temperature;BMP_pressure;BME280_temperature;BME280_humidity;BME280_pressure;Samples;Min_cycle;Max_cycle;Signal;HPM_P1;HPM_P2
2021/07/12 00:00:28;;;;;;;29.00;23.20;;;;;;;22.74;60.68;99676.38;6069000;23;20359;-88
2021/07/12 00:02:56;;;;;;;24.65;20.00;;;;;;;22.77;59.80;99674.16;6055056;23;20332;-87
2021/07/12 00:05:25;;;;;;;31.33;22.42;;;;;;;22.74;60.02;99674.53;6067165;23;20037;-86
2021/07/12 00:07:52;;;;;;;28.50;21.98;;;;;;;22.71;59.96;99674.84;6067268;23;20403;-86
2021/07/12 00:10:21;;;;;;;27.67;21.55;;;;;;;22.68;60.77;99674.38;6067241;23;20447;-86
2021/07/12 00:12:49;;;;;;;33.42;25.35;;;;;;;22.65;60.92;99676.38;6067400;23;20106;-89
2021/07/12 00:15:18;;;;;;;32.30;23.98;;;;;;;22.63;61.26;99672.19;6067142;23;20396;-88
2021/07/12 00:17:45;;;;;;;35.72;26.58;;;;;;;22.63;61.25;99667.66;6068392;23;20031;-88
2021/07/12 00:20:13;;;;;;;34.10;26.50;;;;;;;22.62;61.29;99667.81;6067214;23;20030;-89
2021/07/12 00:22:41;;;;;;;29.92;23.92;;;;;;;22.61;61.05;99672.34;6067215;23;20082;-90
2021/07/12 00:25:09;;;;;;;33.35;21.88;;;;;;;22.61;60.70;99666.16;6066990;23;20033;-90
2021/07/12 00:27:36;;;;;;;29.92;22.45;;;;;;;22.59;60.70;99666.31;6068694;23;20391;-89
2021/07/12 00:30:06;;;;;;;32.47;21.35;;;;;;;22.57;60.60;99659.47;6066703;23;20027;-89
2021/07/12 00:32:33;;;;;;;27.95;21.75;;;;;;;22.55;60.46;99653.41;6068443;23;20343;-89
2021/07/12 00:35:01;;;;;;;30.00;22.58;;;;;;;22.52;60.53;99658.09;6066744;23;20031;-89
2021/07/12 00:37:27;;;;;;;34.40;20.27;;;;;;;22.49;60.05;99657.56;6068666;23;20026;-89
2021/07/12 00:39:54;;;;;;;25.50;19.35;;;;;;;22.44;60.05;99647.34;6066553;23;20034;-90
2021/07/12 00:42:20;;;;;;;26.05;20.33;;;;;;;22.41;60.29;99644.16;6066587;23;20026;-90
2021/07/12 00:44:47;;;;;;;24.65;18.13;;;;;;;22.37;60.05;99643.66;6066751;23;20022;-89
2021/07/12 00:47:14;;;;;;;24.20;19.10;;;;;;;22.31;60.29;99655.88;6066904;23;20026;-90
2021/07/12 00:49:41;;;;;;;23.75;19.42;;;;;;;22.27;60.32;99646.50;6068485;23;20027;-88
2021/07/12 00:52:08;;;;;;;29.88;24.13;;;;;;;22.24;60.98;99649.53;6068182;23;20523;-89
2021/07/12 00:54:35;;;;;;;28.15;21.40;;;;;;;22.21;61.39;99652.53;6068138;23;20023;-86
2021/07/12 00:57:05;;;;;;;26.75;17.80;;;;;;;22.19;61.32;99650.03;6068320;23;20351;-89
2021/07/12 00:59:33;;;;;;;24.80;19.42;;;;;;;22.18;60.94;99637.63;6066661;23;20026;-89
2021/07/12 01:02:00;;;;;;;27.88;21.40;;;;;;;22.17;61.22;99646.69;6067746;23;20471;-87
2021/07/12 01:04:26;;;;;;;33.00;24.27;;;;;;;22.16;61.25;99644.16;6067866;23;20027;-87
2021/07/12 01:06:53;;;;;;;28.08;21.88;;;;;;;22.15;61.16;99646.00;6068167;23;20031;-88
2021/07/12 01:09:20;;;;;;;22.20;18.77;;;;;;;22.14;60.92;99641.66;6068117;23;20027;-88
2021/07/12 01:11:59;;;;;;;22.95;18.08;;;;;;;22.08;61.13;99642.28;6068512;23;20057;-85
2021/07/12 01:14:31;;;;;;;23.65;19.27;;;;;;;22.08;61.31;99645.81;6067766;23;20031;-89
2021/07/12 01:17:28;;;;;;;22.48;19.63;;;;;;;22.03;61.28;99648.16;6068170;23;20030;-88
2021/07/12 01:20:23;;;;;;;25.25;19.75;;;;;;;22.03;61.65;99644.63;6006246;23;20023;-88
2021/07/12 01:23:11;;;;;;;23.85;19.73;;;;;;;22.04;61.34;99647.16;6066750;23;20035;-89
2021/07/12 01:25:54;;;;;;;25.75;20.63;;;;;;;21.99;61.60;99644.97;6067960;23;20030;-86
2021/07/12 01:28:40;;;;;;;25.98;19.15;;;;;;;21.97;61.54;99641.63;6065901;23;20023;-88
2021/07/12 01:31:33;;;;;;;22.23;18.77;;;;;;;21.96;61.71;99641.78;6068087;23;20089;-89
2021/07/12 01:34:12;;;;;;;;;;;;;;;21.97;60.54;99644.31;6066409;23;20027;-89
2021/07/12 01:36:40;;;;;;;26.90;19.50;;;;;;;22.02;60.73;99642.97;6068012;23;20306;-86
2021/07/12 01:39:13;;;;;;;32.10;22.75;;;;;;;21.96;61.86;99636.41;6067950;23;20027;-86
2021/07/12 01:42:00;;;;;;;28.13;22.27;;;;;;;21.94;61.94;99636.56;6067677;23;20035;-89
2021/07/12 01:44:34;;;;;;;28.65;21.58;;;;;;;21.92;62.03;99627.03;6067419;23;20026;-87
2021/07/12 01:47:09;;;;;;;33.15;23.20;;;;;;;21.90;62.12;99621.84;6066552;23;20035;-87
2021/07/12 01:49:45;;;;;;;35.10;24.10;;;;;;;21.91;62.31;99630.72;6066478;23;20459;-88
2021/07/12 01:52:23;;;;;;;35.42;27.17;;;;;;;21.91;62.53;99620.00;6066247;23;20031;-87
2021/07/12 01:55:03;;;;;;;36.20;28.55;;;;;;;21.87;62.79;99614.16;6066052;23;20030;-86
2021/07/12 01:57:35;;;;;;;35.75;25.95;;;;;;;21.90;62.65;99608.44;6067607;23;20119;-87
2021/07/12 02:00:07;;;;;;;31.45;21.65;;;;;;;21.89;62.42;99604.09;6068265;23;20030;-87
2021/07/12 02:02:34;;;;;;;32.20;20.10;;;;;;;21.91;61.97;99604.78;6066306;23;20030;-89
2021/07/12 02:05:07;;;;;;;28.95;20.73;;;;;;;21.91;61.58;99614.66;6067469;23;20038;-88
2021/07/12 02:07:35;;;;;;;28.73;21.80;;;;;;;21.89;61.40;99614.81;6066064;23;20526;-89
2021/07/12 02:10:05;;;;;;;32.47;25.20;;;;;;;21.85;61.76;99617.00;6066218;23;20380;-87
2021/07/12 02:12:34;;;;;;;47.35;29.45;;;;;;;21.82;62.12;99616.47;6066311;23;20022;-89
2021/07/12 02:15:06;;;;;;;67.55;29.08;;;;;;;21.73;62.72;99608.44;6066974;23;20087;-89
2021/07/12 02:17:35;;;;;;;40.55;23.73;;;;;;;21.70;62.42;99610.56;6065861;23;20034;-85
2021/07/12 02:20:08;;;;;;;92.25;24.65;;;;;;;21.61;62.91;99609.72;6067158;23;20085;-86
2021/07/12 02:22:36;;;;;;;;;;;;;;;21.55;61.74;99613.88;6066680;23;20078;-87
2021/07/12 02:25:09;;;;;;;44.30;21.08;;;;;;;21.50;62.61;99616.22;6067456;23;19921;-89
2021/07/12 02:27:36;;;;;;;37.08;21.23;;;;;;;21.41;62.16;99606.47;6067723;23;20551;-86
2021/07/12 02:30:06;;;;;;;33.85;24.27;;;;;;;21.31;63.02;99612.78;6066027;23;20370;-86
2021/07/12 02:32:36;;;;;;;31.77;25.17;;;;;;;21.24;63.36;99611.75;6067406;23;20332;-85
2021/07/12 02:35:06;;;;;;;36.00;26.58;;;;;;;21.17;63.68;99603.53;6067213;23;20094;-89
2021/07/12 02:37:36;;;;;;;61.92;28.92;;;;;;;21.13;64.26;99602.19;6065939;23;20377;-85
2021/07/12 02:40:08;;;;;;;51.35;28.10;;;;;;;21.11;64.00;99598.81;6067003;23;20035;-86
2021/07/12 02:42:39;;;;;;;34.63;25.58;;;;;;;21.08;64.19;99588.41;6067442;23;20320;-87
2021/07/12 02:45:08;;;;;;;49.85;25.95;;;;;;;21.06;64.22;99595.78;6067202;23;20030;-86
2021/07/12 02:47:37;;;;;;;59.90;25.30;;;;;;;21.05;64.18;99599.47;6067411;23;20023;-88
2021/07/12 02:50:06;;;;;;;67.95;24.60;;;;;;;21.05;64.27;99592.25;6064405;23;20359;-86
2021/07/12 02:52:44;;;;;;;71.55;26.63;;;;;;;21.02;64.87;99594.41;6066185;23;20467;-84
2021/07/12 02:55:11;;;;;;;33.00;25.60;;;;;;;21.02;64.38;99591.75;6067592;23;20027;-89
2021/07/12 02:57:39;;;;;;;46.92;20.65;;;;;;;21.01;64.52;99590.06;6065373;23;20038;-87
2021/07/12 03:00:09;;;;;;;36.72;22.75;;;;;;;21.01;64.67;99584.72;6066920;23;20030;-88
2021/07/12 03:02:36;;;;;;;34.53;24.67;;;;;;;21.01;64.44;99590.91;6065574;23;20191;-90
2021/07/12 03:05:05;;;;;;;42.42;22.70;;;;;;;21.01;64.77;99582.88;6067500;23;20037;-89
2021/07/12 03:07:41;;;;;;;48.22;21.85;;;;;;;21.03;65.15;99590.75;6065254;23;20027;-89
2021/07/12 03:10:13;;;;;;;35.78;21.65;;;;;;;21.07;64.85;99581.38;6065749;23;20385;-88
2021/07/12 03:12:50;;;;;;;28.02;22.15;;;;;;;21.09;65.19;99579.41;6065577;23;20027;-88
2021/07/12 03:15:42;;;;;;;29.50;21.35;;;;;;;21.08;64.92;99567.84;6065101;23;20486;-88
2021/07/12 03:18:19;;;;;;;26.63;20.23;;;;;;;21.16;64.46;99569.72;6065380;23;20027;-88
2021/07/12 03:20:47;;;;;;;31.00;20.85;;;;;;;21.19;64.12;99569.41;6065202;23;20031;-88
2021/07/12 03:23:15;;;;;;;30.42;21.55;;;;;;;21.19;64.04;99564.06;6067257;23;20023;-85
2021/07/12 03:25:50;;;;;;;31.13;23.33;;;;;;;21.17;64.43;99563.38;6069031;23;20336;-85
2021/07/12 03:28:18;;;;;;;43.40;22.70;;;;;;;21.17;63.71;99567.88;6067328;23;20383;-87
2021/07/12 03:30:46;;;;;;;28.05;22.90;;;;;;;21.13;63.84;99566.53;6067111;23;20068;-84
2021/07/12 03:33:15;;;;;;;30.25;23.58;;;;;;;21.08;64.08;99564.31;6065471;23;20467;-88
2021/07/12 03:35:44;;;;;;;26.50;21.17;;;;;;;21.05;64.11;99568.16;6066825;23;20031;-88
2021/07/12 03:38:15;;;;;;;28.58;23.02;;;;;;;21.03;64.07;99569.34;6067907;23;20037;-85
2021/07/12 03:40:43;;;;;;;28.38;23.60;;;;;;;21.02;64.37;99567.66;6067725;23;20050;-88
2021/07/12 03:43:11;;;;;;;25.88;21.50;;;;;;;21.02;64.45;99573.88;6066456;23;20079;-85
2021/07/12 03:45:39;;;;;;;25.92;21.98;;;;;;;21.01;64.36;99574.84;6067262;23;20027;-85
2021/07/12 03:48:06;;;;;;;28.45;22.30;;;;;;;21.03;64.32;99572.84;6065564;23;20031;-85
2021/07/12 03:50:34;;;;;;;26.85;22.63;;;;;;;21.03;64.39;99567.50;6066328;23;20033;-85
2021/07/12 03:53:02;;;;;;;34.22;24.27;;;;;;;21.04;64.59;99563.81;6065191;23;20027;-86
2021/07/12 03:55:31;;;;;;;27.88;22.25;;;;;;;21.06;64.57;99574.38;6066403;23;20031;-85
2021/07/12 03:57:59;;;;;;;30.08;22.70;;;;;;;21.06;64.46;99563.66;6065558;23;20026;-86
2021/07/12 04:00:28;;;;;;;31.13;21.42;;;;;;;21.07;64.42;99568.84;6066658;23;20023;-85
2021/07/12 04:02:55;;;;;;;28.17;21.45;;;;;;;21.09;64.33;99566.03;6065650;23;20019;-85
2021/07/12 04:05:27;;;;;;;30.08;22.20;;;;;;;21.11;64.34;99568.56;6067050;23;20054;-87
2021/07/12 04:07:55;;;;;;;30.90;21.33;;;;;;;21.12;64.22;99568.34;6067303;23;20336;-87
2021/07/12 04:10:22;;;;;;;25.20;19.80;;;;;;;21.15;64.27;99567.22;6065060;23;20050;-87
2021/07/12 04:12:48;;;;;;;26.52;20.70;;;;;;;21.17;64.43;99568.75;6066889;23;20031;-85
2021/07/12 04:15:17;;;;;;;24.48;20.65;;;;;;;21.19;64.70;99563.19;6066456;23;20082;-88
2021/07/12 04:17:44;;;;;;;26.85;21.15;;;;;;;21.25;64.73;99567.06;6064792;23;20030;-88
2021/07/12 04:20:12;;;;;;;26.10;20.88;;;;;;;21.28;64.79;99566.75;6067593;23;20027;-85
2021/07/12 04:22:38;;;;;;;27.33;23.02;;;;;;;21.31;64.96;99567.25;6067064;23;20054;-85
2021/07/12 04:25:06;;;;;;;26.13;23.33;;;;;;;21.35;65.13;99565.13;6065517;23;20054;-85
2021/07/12 04:27:33;;;;;;;28.30;24.10;;;;;;;21.40;65.31;99559.25;6066546;23;20031;-85
2021/07/12 04:29:59;;;;;;;28.80;23.40;;;;;;;21.45;65.22;99563.13;6066903;23;20490;-85
2021/07/12 04:32:26;;;;;;;29.77;24.35;;;;;;;21.51;65.40;99564.31;6067004;23;20031;-86
2021/07/12 04:34:53;;;;;;;30.02;23.77;;;;;;;21.56;65.41;99566.47;6065205;23;20033;-88
2021/07/12 04:37:19;;;;;;;27.08;23.75;;;;;;;21.61;65.33;99558.81;6066917;23;20026;-85
2021/07/12 04:39:46;;;;;;;31.45;23.60;;;;;;;21.66;65.34;99556.47;6066767;23;20026;-86
2021/07/12 04:42:13;;;;;;;24.08;21.27;;;;;;;21.70;65.14;99563.19;6066869;23;20030;-88
2021/07/12 04:44:40;;;;;;;28.30;23.88;;;;;;;21.77;65.12;99566.06;6066427;23;20467;-85
2021/07/12 04:47:07;;;;;;;28.65;23.95;;;;;;;21.81;65.22;99563.88;6066521;23;20031;-88
2021/07/12 04:49:34;;;;;;;27.83;22.73;;;;;;;21.86;65.43;99561.53;6066870;23;20105;-85
2021/07/12 04:52:02;;;;;;;29.50;24.48;;;;;;;21.91;65.49;99559.22;6068559;23;20035;-89
2021/07/12 04:54:29;;;;;;;25.98;22.98;;;;;;;21.94;64.97;99558.88;6066582;23;20031;-86
2021/07/12 04:56:55;;;;;;;28.20;23.80;;;;;;;21.96;64.75;99546.16;6068498;23;20033;-85
2021/07/12 04:59:27;;;;;;;28.48;23.55;;;;;;;21.99;64.84;99544.97;6067735;23;20451;-88
2021/07/12 05:01:55;;;;;;;24.40;21.13;;;;;;;22.00;65.00;99552.84;6067017;23;20031;-88
2021/07/12 05:04:21;;;;;;;23.92;21.15;;;;;;;22.03;64.86;99554.38;6066823;23;20043;-85
2021/07/12 05:06:48;;;;;;;28.98;23.05;;;;;;;22.05;64.69;99552.34;6066728;23;20023;-86
2021/07/12 05:09:15;;;;;;;23.55;20.73;;;;;;;22.08;64.60;99556.53;6066596;23;20031;-89
2021/07/12 05:11:42;;;;;;;25.95;21.77;;;;;;;22.11;64.61;99553.50;6066771;23;20415;-89
2021/07/12 05:14:08;;;;;;;26.42;21.13;;;;;;;22.12;64.39;99547.13;6068061;23;20022;-84
2021/07/12 05:16:35;;;;;;;25.15;21.60;;;;;;;22.10;64.22;99543.81;6068836;23;20034;-86
2021/07/12 05:19:02;;;;;;;29.55;20.75;;;;;;;22.07;63.95;99550.34;6067986;23;20410;-88
2021/07/12 05:21:29;;;;;;;20.80;18.48;;;;;;;22.05;64.08;99556.88;6066484;23;20467;-88
2021/07/12 05:23:56;;;;;;;30.45;17.27;;;;;;;22.02;64.03;99555.38;6068185;23;20102;-86
2021/07/12 05:26:23;;;;;;;58.35;17.23;;;;;;;21.98;64.07;99554.03;6067063;23;20455;-88
2021/07/12 05:28:50;;;;;;;84.85;17.75;;;;;;;21.95;63.87;99551.69;6066547;23;20027;-88
2021/07/12 05:31:17;;;;;;;26.45;17.35;;;;;;;21.92;64.04;99554.69;6068270;23;20067;-88
2021/07/12 05:33:44;;;;;;;38.17;17.52;;;;;;;21.89;64.11;99539.78;6067685;23;20074;-88
2021/07/12 05:36:11;;;;;;;42.58;16.55;;;;;;;21.85;64.54;99533.94;6066131;23;20074;-88
2021/07/12 05:38:38;;;;;;;48.85;18.30;;;;;;;21.83;64.44;99537.78;6068202;23;20026;-86
2021/07/12 05:41:04;;;;;;;140.60;19.83;;;;;;;21.80;64.36;99536.28;6066090;23;20027;-87
2021/07/12 05:43:31;;;;;;;140.50;18.67;;;;;;;21.78;64.27;99532.06;6067740;23;20026;-88
2021/07/12 05:45:58;;;;;;;44.47;16.15;;;;;;;21.75;64.50;99535.91;6067693;23;20022;-87
2021/07/12 05:48:24;;;;;;;159.98;19.27;;;;;;;21.72;64.45;99545.13;6069208;23;20030;-84
2021/07/12 05:50:51;;;;;;;68.50;16.83;;;;;;;21.68;64.49;99535.72;6069941;23;20026;-85
2021/07/12 05:53:18;;;;;;;77.45;17.60;;;;;;;21.66;64.53;99531.53;6069557;23;20388;-84
2021/07/12 05:55:45;;;;;;;84.18;19.30;;;;;;;21.62;65.00;99536.38;6069899;23;20082;-85
2021/07/12 05:58:12;;;;;;;66.50;18.80;;;;;;;21.60;65.13;99535.69;6069379;23;20027;-85
2021/07/12 06:00:39;;;;;;;75.60;18.67;;;;;;;21.60;65.47;99530.34;6067296;23;20022;-86
2021/07/12 06:03:06;;;;;;;52.75;18.13;;;;;;;21.60;65.53;99530.34;6066309;23;20384;-85
2021/07/12 06:05:32;;;;;;;34.17;18.90;;;;;;;21.62;65.88;99536.38;6067639;23;20026;-85
2021/07/12 06:07:59;;;;;;;54.95;19.50;;;;;;;21.66;65.91;99535.06;6067590;23;20033;-85
2021/07/12 06:10:27;;;;;;;54.03;20.00;;;;;;;21.70;65.88;99527.50;6065715;23;20470;-85
2021/07/12 06:12:53;;;;;;;24.75;20.63;;;;;;;21.75;66.17;99527.88;6067248;23;20084;-86
2021/07/12 06:15:20;;;;;;;23.77;21.23;;;;;;;21.80;66.60;99525.56;6067356;23;20031;-87
2021/07/12 06:17:47;;;;;;;24.08;20.55;;;;;;;21.87;66.35;99523.88;6067152;23;20463;-86
2021/07/12 06:20:16;;;;;;;26.52;21.38;;;;;;;21.95;66.35;99519.53;6065585;23;20027;-85
2021/07/12 06:22:45;;;;;;;21.42;18.40;;;;;;;22.00;66.16;99528.75;6066117;23;20026;-86
2021/07/12 06:25:12;;;;;;;24.52;21.25;;;;;;;22.08;65.81;99524.34;6067403;23;20031;-86
2021/07/12 06:27:39;;;;;;;24.30;21.40;;;;;;;22.13;65.44;99519.34;6067514;23;20030;-86
2021/07/12 06:30:06;;;;;;;24.90;21.38;;;;;;;22.19;65.48;99523.19;6067398;23;20022;-86
2021/07/12 06:32:33;;;;;;;21.55;19.27;;;;;;;22.25;65.41;99531.38;6067806;23;20063;-86
2021/07/12 06:35:01;;;;;;;22.60;20.17;;;;;;;22.31;65.79;99523.69;6065813;23;20027;-86
2021/07/12 06:37:27;;;;;;;23.45;20.60;;;;;;;22.38;65.84;99525.50;6065900;23;20033;-86
2021/07/12 06:39:54;;;;;;;25.80;21.40;;;;;;;22.49;65.72;99526.13;6065187;23;20030;-86
2021/07/12 06:42:20;;;;;;;23.48;20.80;;;;;;;22.57;65.27;99523.47;6067162;23;20475;-86
2021/07/12 06:44:47;;;;;;;23.45;20.92;;;;;;;22.65;65.45;99519.91;6065814;23;20046;-86
2021/07/12 06:47:15;;;;;;;23.70;21.10;;;;;;;22.73;65.39;99525.25;6067754;23;20350;-86
2021/07/12 06:49:41;;;;;;;24.40;21.80;;;;;;;22.82;65.02;99539.50;6067389;23;20038;-84
2021/07/12 06:52:08;;;;;;;23.50;21.02;;;;;;;22.88;64.77;99530.75;6067884;23;20355;-85
2021/07/12 06:54:34;;;;;;;22.30;20.00;;;;;;;22.93;64.78;99532.06;6065532;23;20019;-86
2021/07/12 06:57:01;;;;;;;22.33;19.70;;;;;;;22.97;64.27;99536.06;6066853;23;20027;-86
2021/07/12 06:59:28;;;;;;;24.25;20.83;;;;;;;23.01;64.39;99538.25;6067356;23;20097;-85
2021/07/12 07:01:54;;;;;;;23.55;20.48;;;;;;;23.05;63.88;99536.03;6066980;23;20026;-86
2021/07/12 07:04:21;;;;;;;24.58;21.05;;;;;;;23.10;64.59;99547.09;6067011;23;20023;-86
2021/07/12 07:06:47;;;;;;;20.90;18.52;;;;;;;23.14;64.53;99548.41;6067836;23;20038;-85
2021/07/12 07:09:14;;;;;;;23.85;21.30;;;;;;;23.20;64.43;99549.56;6067417;23;20031;-86
2021/07/12 07:11:41;;;;;;;26.75;23.38;;;;;;;23.26;64.08;99538.13;6067974;23;20038;-86
2021/07/12 07:14:07;;;;;;;24.60;21.90;;;;;;;23.32;64.32;99536.56;6065793;23;20031;-86
2021/07/12 07:16:35;;;;;;;26.40;22.48;;;;;;;23.37;64.78;99533.41;6066952;23;20470;-87
2021/07/12 07:19:02;;;;;;;25.88;23.13;;;;;;;23.44;64.96;99542.44;6067144;23;20023;-88
2021/07/12 07:21:31;;;;;;;26.08;23.27;;;;;;;23.52;64.03;99536.97;6066966;23;20031;-87
2021/07/12 07:23:57;;;;;;;26.00;22.70;;;;;;;23.59;64.79;99531.75;6064987;23;20467;-87
2021/07/12 07:26:24;;;;;;;24.45;21.63;;;;;;;23.66;64.57;99526.50;6067153;23;20094;-87
2021/07/12 07:28:53;;;;;;;24.10;21.15;;;;;;;23.76;64.30;99523.56;6065607;23;20030;-87
2021/07/12 07:31:21;;;;;;;23.83;20.75;;;;;;;23.85;64.28;99524.34;6065420;23;20030;-87
2021/07/12 07:33:47;;;;;;;20.17;18.13;;;;;;;23.91;63.74;99513.69;6065015;23;20034;-87
2021/07/12 07:36:14;;;;;;;23.50;20.95;;;;;;;24.00;63.67;99510.94;6068275;23;20031;-87
2021/07/12 07:38:43;;;;;;;22.70;20.30;;;;;;;24.07;64.10;99512.72;6065993;23;20027;-88
2021/07/12 07:41:10;;;;;;;24.02;20.80;;;;;;;24.16;63.20;99518.03;6065325;23;20039;-88
2021/07/12 07:43:37;;;;;;;21.48;19.20;;;;;;;24.23;62.70;99521.69;6065251;23;20086;-87
2021/07/12 07:46:04;;;;;;;22.48;20.13;;;;;;;24.27;61.84;99517.63;6066332;23;20026;-86
2021/07/12 07:48:31;;;;;;;19.65;17.60;;;;;;;24.32;61.99;99515.19;6065662;23;20033;-86
2021/07/12 07:50:58;;;;;;;21.02;18.83;;;;;;;24.34;61.82;99509.66;6064937;23;20027;-87
2021/07/12 07:53:25;;;;;;;21.35;18.73;;;;;;;24.38;61.39;99510.09;6067621;23;20034;-86
2021/07/12 07:55:52;;;;;;;22.05;18.92;;;;;;;24.40;61.56;99506.19;6065408;23;20019;-86
2021/07/12 07:58:19;;;;;;;21.45;19.15;;;;;;;24.42;60.94;99503.34;6066630;23;20030;-87
2021/07/12 08:00:45;;;;;;;19.95;17.85;;;;;;;24.42;60.25;99501.50;6065545;23;20638;-86
2021/07/12 08:03:12;;;;;;;21.02;17.80;;;;;;;24.42;60.16;99497.94;6065460;23;20336;-87
2021/07/12 08:05:38;;;;;;;19.83;17.35;;;;;;;24.40;60.35;99492.75;6066699;23;20022;-87
2021/07/12 08:08:05;;;;;;;17.75;15.75;;;;;;;24.39;61.00;99492.94;6066885;23;20026;-87
2021/07/12 08:10:32;;;;;;;21.67;16.45;;;;;;;24.41;60.26;99499.78;6066837;23;20031;-86
2021/07/12 08:13:03;;;;;;;21.88;18.85;;;;;;;24.43;60.09;99499.63;6066985;23;20090;-87
2021/07/12 08:15:29;;;;;;;20.58;18.40;;;;;;;24.43;60.09;99505.84;6067065;23;20070;-88
2021/07/12 08:17:56;;;;;;;18.88;16.75;;;;;;;24.45;60.76;99508.34;6066896;23;20030;-87
2021/07/12 08:20:23;;;;;;;18.92;16.90;;;;;;;24.50;60.78;99505.09;6067130;23;20057;-87
2021/07/12 08:22:52;;;;;;;19.60;17.38;;;;;;;24.53;60.44;99508.25;6067089;23;20069;-87
2021/07/12 08:25:19;;;;;;;19.30;16.88;;;;;;;24.59;60.75;99510.19;6068282;23;20034;-87
2021/07/12 08:27:46;;;;;;;21.27;17.98;;;;;;;24.69;60.55;99506.38;6068240;23;20034;-87
2021/07/12 08:30:15;;;;;;;19.08;16.73;;;;;;;24.80;61.82;99507.78;6066428;23;20034;-90
2021/07/12 08:32:43;;;;;;;18.75;16.85;;;;;;;24.94;60.77;99508.81;6067378;23;20034;-88
2021/07/12 08:35:11;;;;;;;19.60;16.48;;;;;;;25.05;59.90;99505.66;6066311;23;20455;-88
2021/07/12 08:37:37;;;;;;;22.27;17.67;;;;;;;25.17;59.27;99505.97;6066996;23;20022;-88
2021/07/12 08:40:06;;;;;;;17.00;15.25;;;;;;;25.28;59.09;99501.97;6068191;23;20091;-88
2021/07/12 08:42:35;;;;;;;18.02;16.17;;;;;;;25.38;58.97;99498.97;6067156;23;20475;-87
2021/07/12 08:45:06;;;;;;;18.88;16.35;;;;;;;25.48;58.97;99495.94;6066586;23;20030;-88
2021/07/12 08:47:33;;;;;;;18.10;16.13;;;;;;;25.57;58.33;99494.81;6067106;23;20034;-88
2021/07/12 08:49:59;;;;;;;17.70;15.43;;;;;;;25.63;57.44;99496.75;6066752;23;20031;-88
2021/07/12 08:52:26;;;;;;;18.55;16.60;;;;;;;25.70;57.11;99499.50;6066694;23;20026;-89
2021/07/12 08:54:53;;;;;;;18.77;15.63;;;;;;;25.74;57.03;99492.69;6067702;23;20486;-88
2021/07/12 08:57:19;;;;;;;17.52;15.68;;;;;;;25.82;57.03;99496.28;6068324;23;20034;-87
2021/07/12 08:59:46;;;;;;;18.25;16.27;;;;;;;25.88;56.64;99496.34;6067773;23;20027;-88
2021/07/12 09:02:19;;;;;;;20.27;18.08;;;;;;;25.93;56.41;99490.34;6068368;23;20031;-89
2021/07/12 09:04:51;;;;;;;19.13;17.13;;;;;;;26.00;57.16;99493.09;6066160;23;20467;-89
2021/07/12 09:07:26;;;;;;;19.13;16.48;;;;;;;26.04;56.42;99490.84;6068514;23;20031;-89
2021/07/12 09:10:11;;;;;;;19.02;16.13;;;;;;;26.07;57.11;99490.44;6066666;23;20027;-88
2021/07/12 09:12:49;;;;;;;21.30;17.73;;;;;;;26.12;56.79;99488.84;6066374;23;20037;-89
2021/07/12 09:15:18;;;;;;;20.30;18.20;;;;;;;26.19;57.31;99482.63;6065954;23;20019;-90
2021/07/12 09:17:51;;;;;;;20.77;18.65;;;;;;;26.22;56.82;99474.16;6066576;23;20186;-90
2021/07/12 09:20:24;;;;;;;21.27;18.13;;;;;;;26.26;56.97;99472.75;6066295;23;20023;-89
2021/07/12 09:22:50;;;;;;;19.60;17.13;;;;;;;26.34;56.95;99478.00;6066473;23;20038;-89
2021/07/12 09:25:17;;;;;;;19.70;17.58;;;;;;;26.42;56.86;99468.91;6066347;23;20019;-90
2021/07/12 09:27:44;;;;;;;19.10;17.02;;;;;;;26.50;56.61;99466.03;6068331;23;20023;-90
2021/07/12 09:30:21;;;;;;;18.13;14.73;;;;;;;26.60;55.85;99459.44;6066170;23;20030;-89
2021/07/12 09:32:51;;;;;;;16.98;15.18;;;;;;;26.71;55.84;99460.75;6066385;23;20026;-90
2021/07/12 09:35:20;;;;;;;19.88;17.70;;;;;;;26.80;56.04;99462.25;6067735;23;20325;-90
2021/07/12 09:37:59;;;;;;;17.20;15.40;;;;;;;26.86;55.85;99464.13;6067916;23;20023;-90
2021/07/12 09:40:31;;;;;;;17.13;15.30;;;;;;;26.97;56.07;99459.19;6066578;23;20030;-90
2021/07/12 09:42:58;;;;;;;16.65;14.38;;;;;;;27.05;54.89;99461.72;6066950;23;20030;-93
2021/07/12 09:45:28;;;;;;;18.35;16.45;;;;;;;27.09;53.93;99462.97;6070888;23;20023;-93
2021/07/12 09:48:09;;;;;;;16.52;14.82;;;;;;;27.06;54.07;99448.03;6077383;23;20014;-92
2021/07/12 09:50:49;;;;;;;19.35;15.95;;;;;;;27.09;54.12;99445.97;6069926;23;20086;-90
2021/07/12 09:53:27;;;;;;;18.90;16.95;;;;;;;27.08;54.47;99441.56;6065932;23;20087;-90
2021/07/12 09:55:55;;;;;;;18.63;16.63;;;;;;;27.13;54.79;99448.03;6067186;23;20022;-89
2021/07/12 09:58:27;;;;;;;17.40;15.60;;;;;;;27.10;54.54;99437.63;6066480;23;20710;-90
2021/07/12 10:00:54;;;;;;;17.60;15.77;;;;;;;27.13;55.29;99425.59;6066403;23;20023;-91
2021/07/12 10:03:22;;;;;;;16.00;14.40;;;;;;;27.16;54.86;99428.72;6065886;23;20259;-90
2021/07/12 10:05:51;;;;;;;16.63;14.88;;;;;;;27.21;55.13;99424.56;6067845;23;20074;-90
2021/07/12 10:08:18;;;;;;;16.73;15.02;;;;;;;27.25;55.09;99421.25;6066055;23;20034;-90
2021/07/12 10:10:45;;;;;;;16.73;15.02;;;;;;;27.31;54.99;99412.31;6067525;23;20031;-90
2021/07/12 10:13:12;;;;;;;17.70;15.48;;;;;;;27.40;56.12;99410.22;6067815;23;20027;-88
2021/07/12 10:15:40;;;;;;;19.52;15.90;;;;;;;27.54;55.59;99405.66;6065522;23;20023;-89
2021/07/12 10:18:09;;;;;;;15.45;13.55;;;;;;;27.69;54.89;99408.19;6065894;23;20022;-90
2021/07/12 10:20:37;;;;;;;16.20;14.55;;;;;;;27.82;54.75;99404.66;6066026;23;20023;-90
2021/07/12 10:23:08;;;;;;;14.60;12.93;;;;;;;27.94;54.39;99398.59;6066255;23;20090;-88
2021/07/12 10:25:37;;;;;;;16.23;14.40;;;;;;;28.05;54.28;99397.94;6065329;23;20014;-91
2021/07/12 10:28:08;;;;;;;16.63;14.82;;;;;;;28.17;54.68;99402.69;6067707;23;20053;-90
2021/07/12 10:30:45;;;;;;;15.93;13.60;;;;;;;28.28;54.89;99398.53;6065618;23;20564;-88
2021/07/12 10:33:17;;;;;;;16.48;13.93;;;;;;;28.45;54.37;99398.91;6066444;23;20125;-89
2021/07/12 10:35:55;;;;;;;16.15;14.52;;;;;;;28.58;54.43;99398.00;6065000;23;20027;-90
2021/07/12 10:38:37;;;;;;;15.73;14.10;;;;;;;28.71;52.67;99397.13;6066239;23;20022;-91
2021/07/12 10:41:26;;;;;;;13.27;11.95;;;;;;;28.81;51.93;99405.59;6065358;23;20114;-90
2021/07/12 10:43:54;;;;;;;13.07;11.68;;;;;;;28.90;50.89;99397.25;6066878;23;20078;-91
2021/07/12 10:46:24;;;;;;;13.25;11.50;;;;;;;28.88;49.83;99395.56;6067370;23;20050;-91
2021/07/12 10:48:51;;;;;;;12.68;11.35;;;;;;;28.90;50.75;99395.38;6065992;23;20027;-91
2021/07/12 10:51:27;;;;;;;11.25;10.13;;;;;;;28.91;50.25;99391.59;6067031;23;20027;-91
2021/07/12 10:54:01;;;;;;;13.57;11.98;;;;;;;29.05;51.10;99388.81;6066041;23;20109;-91
2021/07/12 10:56:56;;;;;;;11.45;10.27;;;;;;;29.29;53.12;99386.34;6067104;23;20022;-89
2021/07/12 10:59:29;;;;;;;9.30;8.50;;;;;;;29.71;52.45;99374.97;6066034;23;20102;-91
2021/07/12 11:02:17;;;;;;;9.65;8.75;;;;;;;30.06;50.09;99376.25;6067006;23;20417;-91
2021/07/12 11:04:58;;;;;;;9.32;7.22;;;;;;;30.37;48.12;99372.59;6046553;23;20098;-91
2021/07/12 11:07:45;;;;;;;7.75;6.88;;;;;;;30.63;48.69;99375.19;6067328;23;20034;-91
2021/07/12 11:10:19;;;;;;;8.02;7.32;;;;;;;30.84;46.99;99364.88;6067328;23;20057;-91
2021/07/12 11:12:53;;;;;;;7.95;6.88;;;;;;;30.94;46.60;99360.56;6067328;23;20026;-90
2021/07/12 11:15:22;;;;;;;8.57;7.10;;;;;;;31.10;48.12;99365.53;6066783;23;20463;-92
2021/07/12 11:18:34;;;;;;;6.75;6.15;;;;;;;31.38;48.55;99364.06;6065713;23;20106;-91
2021/07/12 11:21:07;;;;;;;5.50;5.00;;;;;;;31.84;46.65;99365.13;5955984;24;20032;-91
2021/07/12 11:23:43;;;;;;;5.88;5.38;;;;;;;32.32;45.67;99365.06;5978870;24;20024;-90
2021/07/12 11:26:26;;;;;;;6.47;5.88;;;;;;;32.81;45.79;99363.00;6030458;23;20026;-92
2021/07/12 11:29:27;;;;;;;6.53;5.93;;;;;;;33.34;44.68;99360.09;6065183;23;20023;-91
2021/07/12 11:32:07;;;;;;;6.43;5.85;;;;;;;33.91;43.38;99361.75;6065871;23;20019;-91